aviador You're here:

LCLK Decoded Metar

LARNACA in CYPRUS
Report Time2017-08-18 04:30:00
UTC Time2017-08-18 04:48:46
Flight Rules vfr VFR
WindVRB at 02 kt
Visibility9999 m
Phenomena:N/A
Clouds:Few 037 Hf
Expected CloudBase > 1,600 ft AGL from Temp-Dew spread
CeilingNone
Temp25°C (ISA +10)
Dew Point21°C (79% RH)
QNH1008 hPa
Density Alt1,663 ft
Elevation7 ft
Report Wrong Elevation
Raw Report
LCLK 180430Z VRB02KT 9999 FEW037 25/21 Q1008 NOSIG=

Extra information for LCLK:More info

Metar Taf Metar & Taf Last 4 Metars F.Rules Stats Wind Profile Meteogram Temp Stats Airport Information Weather charts Add Link Nearby VenuesMetar ALERT Operation Metar Decoded Social comments